To NAV CANADA Home Page Login to a new session Search on AWWS site Feedback and Comments Disclaimer Vers la page française équivalente Tips FAQ What's new on the site To the Forecasts and Observations / NOTAM section To "File a Flight Plan" website Publications and other links Update of the User's profile FIC Telephone Numbers My Weather Data Folder Route Weather Data Regional Weather Data Local Weather Data To the Forecasts and Observations / NOTAM section
Request Generated 04/19/2014 at 12:25:44 UTC . Weather information available at that time is displayed.

METAR/TAF

BURWASH LANDING/BURWASH/YT    

METAR CYDB 191200Z AUTO 07003KT 9SM BKN060 M04/M06 A2961 RMK SLP062=
METAR CYDB 191100Z AUTO 00000KT 9SM BKN060 M05/M07 A2961 RMK SLP062=
METAR CYDB 191000Z AUTO VRB02KT 9SM FEW070 M04/M07 A2961 RMK SLP062=

TAF CYDB 191138Z 1912/1924 VRB03KT P6SM FEW040 SCT080 TEMPO 1912/1924
SCT040 BKN080
BECMG 1918/1920 10008KT
RMK FCST BASED ON AUTO OBS. NXT FCST BY 191800Z=
Your time UTC time
Weather data provided by Environment Canada and NAV CANADA